FBY67S LEBB-LESO
Flight info
| Callsign | FBY67S |
|---|---|
| Flight time | 0h 33m |
| Altitude | 8500 |
| Route | VFR |
| Aircraft | DA42/L-V/N |
Departure
| Time | 2026-05-08 20:17 |
|---|---|
| Airport | Bilbao Airport (LEBB) |
Arrival
| Time | 2026-05-08 20:51 |
|---|---|
| Airport | San Sebastián Airport (LESO) |
| Time | Latitude | Longitude | Altitude | Speed | Heading |
|---|---|---|---|---|---|
| 2026-05-08 20:08 | 43.30117 | -2.93254 | 126 ft | 0 kts | 276° |
| 2026-05-08 20:13 | 43.30139 | -2.93396 | 123 ft | 27 kts | 291° |
| 2026-05-08 20:13 | 43.30202 | -2.93704 | 126 ft | 24 kts | 287° |
| 2026-05-08 20:13 | 43.30209 | -2.93731 | 125 ft | 0 kts | 295° |
| 2026-05-08 20:14 | 43.30223 | -2.93713 | 126 ft | 7 kts | 49° |
| 2026-05-08 20:14 | 43.30227 | -2.93709 | 126 ft | 0 kts | 15° |
| 2026-05-08 20:15 | 43.30250 | -2.93705 | 126 ft | 9 kts | 5° |
| 2026-05-08 20:15 | 43.30334 | -2.93622 | 125 ft | 21 kts | 86° |
| 2026-05-08 20:16 | 43.30316 | -2.93390 | 127 ft | 41 kts | 97° |
| 2026-05-08 20:16 | 43.30290 | -2.93029 | 124 ft | 71 kts | 96° |
| 2026-05-08 20:16 | 43.30195 | -2.92315 | 297 ft | 79 kts | 97° |
| 2026-05-08 20:16 | 43.30215 | -2.91558 | 489 ft | 81 kts | 82° |
| 2026-05-08 20:17 | 43.30400 | -2.90799 | 620 ft | 95 kts | 72° |
| 2026-05-08 20:17 | 43.30600 | -2.90020 | 892 ft | 92 kts | 63° |
| 2026-05-08 20:17 | 43.30848 | -2.89144 | 1084 ft | 94 kts | 77° |
| 2026-05-08 20:17 | 43.30957 | -2.88231 | 1249 ft | 106 kts | 76° |
| 2026-05-08 20:18 | 43.31260 | -2.87365 | 1595 ft | 97 kts | 56° |
| 2026-05-08 20:18 | 43.31588 | -2.86543 | 1783 ft | 93 kts | 88° |
| 2026-05-08 20:18 | 43.31700 | -2.85612 | 1925 ft | 106 kts | 65° |
| 2026-05-08 20:18 | 43.32034 | -2.84823 | 2182 ft | 96 kts | 80° |
| 2026-05-08 20:19 | 43.32201 | -2.83926 | 2341 ft | 101 kts | 84° |
| 2026-05-08 20:19 | 43.32236 | -2.82971 | 2514 ft | 100 kts | 104° |
| 2026-05-08 20:19 | 43.32202 | -2.82004 | 2631 ft | 112 kts | 84° |
| 2026-05-08 20:19 | 43.32536 | -2.80902 | 2541 ft | 135 kts | 71° |
| 2026-05-08 20:20 | 43.32938 | -2.79740 | 2657 ft | 132 kts | 70° |
| 2026-05-08 20:20 | 43.33333 | -2.78620 | 2811 ft | 129 kts | 71° |
| 2026-05-08 20:20 | 43.33734 | -2.77527 | 2961 ft | 127 kts | 71° |
| 2026-05-08 20:20 | 43.34143 | -2.76438 | 3114 ft | 128 kts | 71° |
| 2026-05-08 20:21 | 43.34557 | -2.75363 | 3260 ft | 128 kts | 71° |
| 2026-05-08 20:21 | 43.34983 | -2.74272 | 3409 ft | 129 kts | 71° |
| 2026-05-08 20:21 | 43.35407 | -2.73199 | 3553 ft | 126 kts | 71° |
| 2026-05-08 20:21 | 43.35832 | -2.72120 | 3700 ft | 128 kts | 70° |
| 2026-05-08 20:22 | 43.36252 | -2.71054 | 3848 ft | 128 kts | 70° |
| 2026-05-08 20:22 | 43.36673 | -2.69982 | 3999 ft | 127 kts | 70° |
| 2026-05-08 20:22 | 43.37093 | -2.68918 | 4151 ft | 126 kts | 71° |
| 2026-05-08 20:22 | 43.37512 | -2.67861 | 4302 ft | 124 kts | 70° |
| 2026-05-08 20:23 | 43.37916 | -2.66853 | 4523 ft | 118 kts | 70° |
| 2026-05-08 20:23 | 43.38306 | -2.65899 | 4771 ft | 110 kts | 70° |
| 2026-05-08 20:23 | 43.38675 | -2.65019 | 5020 ft | 103 kts | 70° |
| 2026-05-08 20:23 | 43.39035 | -2.64168 | 5265 ft | 101 kts | 70° |
| 2026-05-08 20:24 | 43.39378 | -2.63351 | 5510 ft | 99 kts | 70° |
| 2026-05-08 20:24 | 43.39718 | -2.62546 | 5754 ft | 95 kts | 70° |
| 2026-05-08 20:24 | 43.40040 | -2.61779 | 5995 ft | 90 kts | 70° |
| 2026-05-08 20:24 | 43.40342 | -2.61061 | 6242 ft | 83 kts | 70° |
| 2026-05-08 20:25 | 43.40620 | -2.60414 | 6460 ft | 74 kts | 70° |
| 2026-05-08 20:25 | 43.40891 | -2.59785 | 6590 ft | 79 kts | 70° |
| 2026-05-08 20:25 | 43.41172 | -2.59131 | 6715 ft | 80 kts | 70° |
| 2026-05-08 20:25 | 43.41457 | -2.58470 | 6835 ft | 80 kts | 71° |
| 2026-05-08 20:26 | 43.41739 | -2.57814 | 6961 ft | 81 kts | 70° |
| 2026-05-08 20:26 | 43.41957 | -2.57118 | 7075 ft | 75 kts | 100° |
| 2026-05-08 20:26 | 43.41981 | -2.56408 | 7206 ft | 74 kts | 100° |
| 2026-05-08 20:26 | 43.42004 | -2.55695 | 7331 ft | 75 kts | 100° |
| 2026-05-08 20:27 | 43.42023 | -2.54972 | 7468 ft | 78 kts | 100° |
| 2026-05-08 20:27 | 43.42039 | -2.54202 | 7598 ft | 82 kts | 100° |
| 2026-05-08 20:27 | 43.42050 | -2.53402 | 7730 ft | 87 kts | 100° |
| 2026-05-08 20:27 | 43.42054 | -2.52541 | 7865 ft | 93 kts | 100° |
| 2026-05-08 20:28 | 43.42051 | -2.51628 | 7998 ft | 97 kts | 100° |
| 2026-05-08 20:28 | 43.42043 | -2.50689 | 8126 ft | 101 kts | 100° |
| 2026-05-08 20:28 | 43.42031 | -2.49708 | 8253 ft | 103 kts | 100° |
| 2026-05-08 20:28 | 43.42017 | -2.48718 | 8381 ft | 104 kts | 101° |
| 2026-05-08 20:29 | 43.42002 | -2.47715 | 8501 ft | 106 kts | 100° |
| 2026-05-08 20:29 | 43.41979 | -2.46661 | 8499 ft | 116 kts | 101° |
| 2026-05-08 20:29 | 43.41948 | -2.45513 | 8499 ft | 123 kts | 101° |
| 2026-05-08 20:29 | 43.41898 | -2.44324 | 8494 ft | 125 kts | 108° |
| 2026-05-08 20:30 | 43.41547 | -2.43274 | 8501 ft | 119 kts | 136° |
| 2026-05-08 20:30 | 43.40990 | -2.42430 | 8506 ft | 120 kts | 140° |
| 2026-05-08 20:30 | 43.40422 | -2.41609 | 8505 ft | 120 kts | 140° |
| 2026-05-08 20:30 | 43.39835 | -2.40771 | 8500 ft | 120 kts | 143° |
| 2026-05-08 20:31 | 43.39105 | -2.40273 | 8508 ft | 116 kts | 165° |
| 2026-05-08 20:31 | 43.38356 | -2.39940 | 8508 ft | 113 kts | 166° |
| 2026-05-08 20:31 | 43.37615 | -2.39616 | 8510 ft | 111 kts | 166° |
| 2026-05-08 20:31 | 43.36866 | -2.39437 | 8512 ft | 108 kts | 179° |
| 2026-05-08 20:32 | 43.36116 | -2.39421 | 8512 ft | 107 kts | 181° |
| 2026-05-08 20:32 | 43.35374 | -2.39413 | 8508 ft | 107 kts | 181° |
| 2026-05-08 20:32 | 43.34640 | -2.39247 | 8491 ft | 110 kts | 154° |
| 2026-05-08 20:32 | 43.34151 | -2.38427 | 8507 ft | 115 kts | 127° |
| 2026-05-08 20:33 | 43.33770 | -2.37452 | 8508 ft | 116 kts | 126° |
| 2026-05-08 20:33 | 43.33393 | -2.36468 | 8507 ft | 116 kts | 126° |
| 2026-05-08 20:33 | 43.33075 | -2.35434 | 8495 ft | 124 kts | 105° |
| 2026-05-08 20:33 | 43.33214 | -2.34249 | 8509 ft | 129 kts | 82° |
| 2026-05-08 20:34 | 43.33478 | -2.33062 | 8504 ft | 130 kts | 81° |
| 2026-05-08 20:34 | 43.33748 | -2.31874 | 8510 ft | 130 kts | 81° |
| 2026-05-08 20:34 | 43.34863 | -2.29833 | 8511 ft | 137 kts | 51° |
| 2026-05-08 20:35 | 43.35530 | -2.28914 | 8511 ft | 137 kts | 51° |
| 2026-05-08 20:35 | 43.36198 | -2.27975 | 8503 ft | 136 kts | 58° |
| 2026-05-08 20:35 | 43.36469 | -2.26826 | 8506 ft | 122 kts | 104° |
| 2026-05-08 20:35 | 43.36114 | -2.25886 | 8511 ft | 108 kts | 149° |
| 2026-05-08 20:36 | 43.35467 | -2.25402 | 8507 ft | 106 kts | 159° |
| 2026-05-08 20:36 | 43.34798 | -2.24973 | 8508 ft | 106 kts | 160° |
| 2026-05-08 20:36 | 43.34127 | -2.24546 | 8510 ft | 106 kts | 160° |
| 2026-05-08 20:36 | 43.33453 | -2.24117 | 8513 ft | 106 kts | 160° |
| 2026-05-08 20:37 | 43.32780 | -2.23686 | 8509 ft | 107 kts | 160° |
| 2026-05-08 20:37 | 43.32115 | -2.23258 | 8509 ft | 107 kts | 160° |
| 2026-05-08 20:37 | 43.31590 | -2.22512 | 8505 ft | 117 kts | 119° |
| 2026-05-08 20:37 | 43.31475 | -2.21364 | 8516 ft | 123 kts | 102° |
| 2026-05-08 20:38 | 43.31432 | -2.20193 | 8513 ft | 123 kts | 102° |
| 2026-05-08 20:38 | 43.31393 | -2.19019 | 8511 ft | 123 kts | 102° |
| 2026-05-08 20:38 | 43.31353 | -2.17856 | 8512 ft | 123 kts | 102° |
| 2026-05-08 20:38 | 43.31312 | -2.16675 | 8510 ft | 124 kts | 102° |
| 2026-05-08 20:39 | 43.31273 | -2.15494 | 8503 ft | 124 kts | 102° |
| 2026-05-08 20:39 | 43.31231 | -2.14299 | 8396 ft | 130 kts | 102° |
| 2026-05-08 20:39 | 43.31183 | -2.13061 | 8141 ft | 131 kts | 102° |
| 2026-05-08 20:39 | 43.31134 | -2.11800 | 7886 ft | 132 kts | 102° |
| 2026-05-08 20:40 | 43.31087 | -2.10542 | 7635 ft | 132 kts | 102° |
| 2026-05-08 20:40 | 43.31239 | -2.09262 | 7377 ft | 141 kts | 76° |
| 2026-05-08 20:40 | 43.31649 | -2.08052 | 7132 ft | 142 kts | 72° |
| 2026-05-08 20:40 | 43.32086 | -2.06836 | 6893 ft | 142 kts | 72° |
| 2026-05-08 20:41 | 43.32524 | -2.05619 | 6643 ft | 141 kts | 72° |
| 2026-05-08 20:41 | 43.32960 | -2.04421 | 6401 ft | 141 kts | 72° |
| 2026-05-08 20:41 | 43.33403 | -2.03217 | 6150 ft | 140 kts | 72° |
| 2026-05-08 20:41 | 43.33849 | -2.02023 | 5892 ft | 140 kts | 72° |
| 2026-05-08 20:42 | 43.34298 | -2.00833 | 5642 ft | 140 kts | 72° |
| 2026-05-08 20:42 | 43.34748 | -1.99661 | 5386 ft | 139 kts | 72° |
| 2026-05-08 20:42 | 43.35211 | -1.98487 | 5134 ft | 139 kts | 71° |
| 2026-05-08 20:42 | 43.35693 | -1.97348 | 4892 ft | 139 kts | 70° |
| 2026-05-08 20:43 | 43.36189 | -1.96198 | 4634 ft | 139 kts | 70° |
| 2026-05-08 20:43 | 43.36680 | -1.95056 | 4379 ft | 138 kts | 70° |
| 2026-05-08 20:43 | 43.37146 | -1.93920 | 4125 ft | 135 kts | 75° |
| 2026-05-08 20:43 | 43.37227 | -1.92728 | 3871 ft | 120 kts | 114° |
| 2026-05-08 20:44 | 43.36736 | -1.91927 | 3631 ft | 109 kts | 159° |
| 2026-05-08 20:44 | 43.36001 | -1.91742 | 3394 ft | 109 kts | 173° |
| 2026-05-08 20:44 | 43.35242 | -1.91641 | 3145 ft | 110 kts | 174° |
| 2026-05-08 20:44 | 43.34489 | -1.91545 | 3019 ft | 102 kts | 174° |
| 2026-05-08 20:45 | 43.33830 | -1.91462 | 3009 ft | 89 kts | 174° |
| 2026-05-08 20:45 | 43.33443 | -1.91415 | 2997 ft | 80 kts | 174° |
| 2026-05-08 20:45 | 43.32751 | -1.91339 | 3004 ft | 74 kts | 174° |
| 2026-05-08 20:45 | 43.32240 | -1.91285 | 3004 ft | 74 kts | 174° |
| 2026-05-08 20:46 | 43.31747 | -1.91230 | 2997 ft | 70 kts | 174° |
| 2026-05-08 20:46 | 43.31272 | -1.91181 | 2998 ft | 64 kts | 174° |
| 2026-05-08 20:46 | 43.30872 | -1.91081 | 2926 ft | 61 kts | 146° |
| 2026-05-08 20:46 | 43.30849 | -1.90468 | 2889 ft | 84 kts | 72° |
| 2026-05-08 20:47 | 43.31111 | -1.89622 | 2703 ft | 96 kts | 82° |
| 2026-05-08 20:47 | 43.31265 | -1.88713 | 2561 ft | 101 kts | 89° |
| 2026-05-08 20:47 | 43.31378 | -1.87718 | 2333 ft | 111 kts | 94° |
| 2026-05-08 20:47 | 43.31465 | -1.86663 | 2037 ft | 110 kts | 84° |
| 2026-05-08 20:48 | 43.31723 | -1.85649 | 1618 ft | 109 kts | 67° |
| 2026-05-08 20:48 | 43.31972 | -1.84806 | 1502 ft | 84 kts | 76° |
| 2026-05-08 20:48 | 43.32191 | -1.84056 | 1219 ft | 86 kts | 68° |
| 2026-05-08 20:48 | 43.32473 | -1.83334 | 1006 ft | 83 kts | 63° |
| 2026-05-08 20:49 | 43.32757 | -1.82656 | 799 ft | 80 kts | 60° |
| 2026-05-08 20:49 | 43.33078 | -1.82055 | 636 ft | 74 kts | 54° |
| 2026-05-08 20:49 | 43.33442 | -1.81510 | 467 ft | 88 kts | 44° |
| 2026-05-08 20:49 | 43.33921 | -1.80942 | 421 ft | 94 kts | 45° |
| 2026-05-08 20:50 | 43.34408 | -1.80369 | 352 ft | 80 kts | 43° |
| 2026-05-08 20:50 | 43.34845 | -1.79906 | 133 ft | 80 kts | 34° |
| 2026-05-08 20:50 | 43.35261 | -1.79470 | 27 ft | 69 kts | 40° |
| 2026-05-08 20:50 | 43.35588 | -1.79106 | 14 ft | 52 kts | 37° |
| 2026-05-08 20:51 | 43.35771 | -1.78899 | 16 ft | 0 kts | 6° |
| 2026-05-08 20:51 | 43.35752 | -1.78946 | 15 ft | 15 kts | 222° |
| 2026-05-08 20:51 | 43.35625 | -1.79086 | 14 ft | 29 kts | 220° |
| 2026-05-08 20:51 | 43.35525 | -1.79293 | 14 ft | 27 kts | 304° |
| 2026-05-08 20:52 | 43.35536 | -1.79378 | 15 ft | 8 kts | 209° |
| 2026-05-08 20:52 | 43.35499 | -1.79424 | 16 ft | 7 kts | 186° |
| 2026-05-08 20:52 | 43.35487 | -1.79415 | 16 ft | 0 kts | 128° |